sensor_id;sensor_type;location;lat;lon;timestamp;P1;durP1;ratioP1;P2;durP2;ratioP2
11481;SDS011;5797;51.662;6.748;2022-11-15T00:02:41;14.27;;;7.13;;
11481;SDS011;5797;51.662;6.748;2022-11-15T00:05:47;11.10;;;7.30;;
11481;SDS011;5797;51.662;6.748;2022-11-15T00:08:54;12.77;;;8.03;;
11481;SDS011;5797;51.662;6.748;2022-11-15T00:12:00;12.73;;;7.83;;
11481;SDS011;5797;51.662;6.748;2022-11-15T00:15:06;12.10;;;7.60;;
11481;SDS011;5797;51.662;6.748;2022-11-15T00:18:13;12.47;;;7.53;;
11481;SDS011;5797;51.662;6.748;2022-11-15T00:21:20;10.97;;;6.93;;
11481;SDS011;5797;51.662;6.748;2022-11-15T00:24:27;13.53;;;7.53;;
11481;SDS011;5797;51.662;6.748;2022-11-15T00:27:32;16.93;;;8.63;;
11481;SDS011;5797;51.662;6.748;2022-11-15T00:30:38;12.00;;;7.67;;
11481;SDS011;5797;51.662;6.748;2022-11-15T00:33:44;12.50;;;7.53;;
11481;SDS011;5797;51.662;6.748;2022-11-15T00:36:50;13.47;;;7.37;;
11481;SDS011;5797;51.662;6.748;2022-11-15T00:39:57;11.43;;;7.60;;
11481;SDS011;5797;51.662;6.748;2022-11-15T00:43:02;12.80;;;7.30;;
11481;SDS011;5797;51.662;6.748;2022-11-15T00:46:08;14.60;;;7.63;;
11481;SDS011;5797;51.662;6.748;2022-11-15T00:49:14;11.83;;;8.13;;
11481;SDS011;5797;51.662;6.748;2022-11-15T00:52:19;14.23;;;7.40;;
11481;SDS011;5797;51.662;6.748;2022-11-15T00:55:26;13.70;;;7.47;;
11481;SDS011;5797;51.662;6.748;2022-11-15T00:58:32;11.73;;;7.87;;
11481;SDS011;5797;51.662;6.748;2022-11-15T01:01:38;12.67;;;7.47;;
11481;SDS011;5797;51.662;6.748;2022-11-15T01:04:43;11.27;;;7.37;;
11481;SDS011;5797;51.662;6.748;2022-11-15T01:07:51;11.10;;;7.50;;
11481;SDS011;5797;51.662;6.748;2022-11-15T01:11:01;13.50;;;7.63;;
11481;SDS011;5797;51.662;6.748;2022-11-15T01:14:07;15.83;;;7.60;;
11481;SDS011;5797;51.662;6.748;2022-11-15T01:17:13;11.20;;;7.43;;
11481;SDS011;5797;51.662;6.748;2022-11-15T01:20:19;12.07;;;7.93;;
11481;SDS011;5797;51.662;6.748;2022-11-15T01:23:25;12.37;;;7.40;;
11481;SDS011;5797;51.662;6.748;2022-11-15T01:26:32;12.87;;;7.90;;
11481;SDS011;5797;51.662;6.748;2022-11-15T01:29:38;11.57;;;7.87;;
11481;SDS011;5797;51.662;6.748;2022-11-15T01:32:43;11.20;;;7.17;;
11481;SDS011;5797;51.662;6.748;2022-11-15T01:35:49;17.27;;;8.03;;
11481;SDS011;5797;51.662;6.748;2022-11-15T01:38:55;12.83;;;7.63;;
11481;SDS011;5797;51.662;6.748;2022-11-15T01:42:03;14.43;;;7.87;;
11481;SDS011;5797;51.662;6.748;2022-11-15T01:45:11;11.43;;;7.27;;
11481;SDS011;5797;51.662;6.748;2022-11-15T01:48:19;14.80;;;8.43;;
11481;SDS011;5797;51.662;6.748;2022-11-15T01:51:26;11.97;;;7.37;;
11481;SDS011;5797;51.662;6.748;2022-11-15T01:54:33;15.53;;;8.80;;
11481;SDS011;5797;51.662;6.748;2022-11-15T01:57:41;10.60;;;7.13;;
11481;SDS011;5797;51.662;6.748;2022-11-15T02:00:48;15.43;;;8.10;;
11481;SDS011;5797;51.662;6.748;2022-11-15T02:03:55;15.23;;;8.03;;
11481;SDS011;5797;51.662;6.748;2022-11-15T02:07:02;13.57;;;7.57;;
11481;SDS011;5797;51.662;6.748;2022-11-15T02:10:10;14.97;;;8.23;;
11481;SDS011;5797;51.662;6.748;2022-11-15T02:13:18;11.10;;;8.10;;
11481;SDS011;5797;51.662;6.748;2022-11-15T02:16:26;12.13;;;7.50;;
11481;SDS011;5797;51.662;6.748;2022-11-15T02:19:47;13.17;;;7.43;;
11481;SDS011;5797;51.662;6.748;2022-11-15T02:26:48;10.17;;;6.87;;
11481;SDS011;5797;51.662;6.748;2022-11-15T02:30:15;14.63;;;7.23;;
11481;SDS011;5797;51.662;6.748;2022-11-15T02:33:26;12.53;;;7.63;;
11481;SDS011;5797;51.662;6.748;2022-11-15T02:36:39;13.73;;;8.57;;
11481;SDS011;5797;51.662;6.748;2022-11-15T02:39:49;13.63;;;7.57;;
11481;SDS011;5797;51.662;6.748;2022-11-15T02:42:57;15.03;;;7.33;;
11481;SDS011;5797;51.662;6.748;2022-11-15T02:46:30;12.77;;;7.63;;
11481;SDS011;5797;51.662;6.748;2022-11-15T02:49:57;13.27;;;7.47;;
11481;SDS011;5797;51.662;6.748;2022-11-15T02:53:04;12.17;;;7.53;;
11481;SDS011;5797;51.662;6.748;2022-11-15T02:56:10;16.00;;;8.00;;
11481;SDS011;5797;51.662;6.748;2022-11-15T02:59:20;12.07;;;7.53;;
11481;SDS011;5797;51.662;6.748;2022-11-15T03:02:51;11.83;;;7.27;;
11481;SDS011;5797;51.662;6.748;2022-11-15T03:06:12;18.57;;;7.37;;
11481;SDS011;5797;51.662;6.748;2022-11-15T03:09:24;14.90;;;7.60;;
11481;SDS011;5797;51.662;6.748;2022-11-15T03:12:35;13.33;;;7.90;;
11481;SDS011;5797;51.662;6.748;2022-11-15T03:15:43;12.70;;;7.77;;
11481;SDS011;5797;51.662;6.748;2022-11-15T03:18:54;13.50;;;7.07;;
11481;SDS011;5797;51.662;6.748;2022-11-15T03:22:03;15.93;;;8.20;;
11481;SDS011;5797;51.662;6.748;2022-11-15T03:25:12;10.83;;;7.37;;
11481;SDS011;5797;51.662;6.748;2022-11-15T03:28:23;14.57;;;7.87;;
11481;SDS011;5797;51.662;6.748;2022-11-15T03:31:32;14.43;;;9.17;;
11481;SDS011;5797;51.662;6.748;2022-11-15T03:34:57;11.77;;;7.63;;
11481;SDS011;5797;51.662;6.748;2022-11-15T03:38:06;13.20;;;7.87;;
11481;SDS011;5797;51.662;6.748;2022-11-15T03:41:24;12.90;;;7.67;;
11481;SDS011;5797;51.662;6.748;2022-11-15T03:44:35;11.17;;;7.93;;
11481;SDS011;5797;51.662;6.748;2022-11-15T03:47:45;12.33;;;7.30;;
11481;SDS011;5797;51.662;6.748;2022-11-15T03:50:55;15.87;;;7.57;;
11481;SDS011;5797;51.662;6.748;2022-11-15T03:54:02;13.53;;;6.43;;
11481;SDS011;5797;51.662;6.748;2022-11-15T03:57:09;14.67;;;6.53;;
11481;SDS011;5797;51.662;6.748;2022-11-15T04:00:15;10.03;;;6.00;;
11481;SDS011;5797;51.662;6.748;2022-11-15T04:03:27;10.03;;;6.97;;
11481;SDS011;5797;51.662;6.748;2022-11-15T04:06:39;11.00;;;6.80;;
11481;SDS011;5797;51.662;6.748;2022-11-15T04:09:46;8.70;;;6.30;;
11481;SDS011;5797;51.662;6.748;2022-11-15T04:13:10;11.67;;;7.17;;
11481;SDS011;5797;51.662;6.748;2022-11-15T04:16:18;11.27;;;7.33;;
11481;SDS011;5797;51.662;6.748;2022-11-15T04:19:32;10.70;;;6.80;;
11481;SDS011;5797;51.662;6.748;2022-11-15T04:22:57;13.93;;;7.43;;
11481;SDS011;5797;51.662;6.748;2022-11-15T04:26:21;11.43;;;7.20;;
11481;SDS011;5797;51.662;6.748;2022-11-15T04:29:28;11.90;;;6.97;;
11481;SDS011;5797;51.662;6.748;2022-11-15T04:32:40;13.03;;;7.30;;
11481;SDS011;5797;51.662;6.748;2022-11-15T04:35:46;11.13;;;6.90;;
11481;SDS011;5797;51.662;6.748;2022-11-15T04:39:13;13.30;;;7.47;;
11481;SDS011;5797;51.662;6.748;2022-11-15T04:42:20;12.47;;;7.67;;
11481;SDS011;5797;51.662;6.748;2022-11-15T04:45:25;10.50;;;7.07;;
11481;SDS011;5797;51.662;6.748;2022-11-15T04:48:31;10.93;;;7.43;;
11481;SDS011;5797;51.662;6.748;2022-11-15T04:51:37;12.23;;;7.17;;
11481;SDS011;5797;51.662;6.748;2022-11-15T04:54:45;12.47;;;7.43;;
11481;SDS011;5797;51.662;6.748;2022-11-15T04:57:58;11.57;;;7.53;;
11481;SDS011;5797;51.662;6.748;2022-11-15T05:01:06;16.07;;;7.80;;
11481;SDS011;5797;51.662;6.748;2022-11-15T05:04:14;11.10;;;7.53;;
11481;SDS011;5797;51.662;6.748;2022-11-15T05:07:27;9.73;;;6.87;;
11481;SDS011;5797;51.662;6.748;2022-11-15T05:10:34;11.30;;;7.33;;
11481;SDS011;5797;51.662;6.748;2022-11-15T05:13:41;13.50;;;7.43;;
11481;SDS011;5797;51.662;6.748;2022-11-15T05:16:47;16.20;;;7.20;;
11481;SDS011;5797;51.662;6.748;2022-11-15T05:19:53;14.80;;;7.47;;
11481;SDS011;5797;51.662;6.748;2022-11-15T05:22:59;12.73;;;7.50;;
11481;SDS011;5797;51.662;6.748;2022-11-15T05:26:07;13.73;;;7.60;;
11481;SDS011;5797;51.662;6.748;2022-11-15T05:29:13;12.63;;;7.73;;
11481;SDS011;5797;51.662;6.748;2022-11-15T05:32:19;12.80;;;8.07;;
11481;SDS011;5797;51.662;6.748;2022-11-15T05:35:29;12.07;;;7.93;;
11481;SDS011;5797;51.662;6.748;2022-11-15T05:38:37;12.23;;;8.03;;
11481;SDS011;5797;51.662;6.748;2022-11-15T05:41:46;11.90;;;6.70;;
11481;SDS011;5797;51.662;6.748;2022-11-15T05:44:54;12.90;;;7.93;;
11481;SDS011;5797;51.662;6.748;2022-11-15T05:48:00;18.43;;;8.23;;
11481;SDS011;5797;51.662;6.748;2022-11-15T05:51:11;13.53;;;7.60;;
11481;SDS011;5797;51.662;6.748;2022-11-15T05:54:18;13.83;;;8.03;;
11481;SDS011;5797;51.662;6.748;2022-11-15T05:57:27;18.00;;;8.53;;
11481;SDS011;5797;51.662;6.748;2022-11-15T06:00:33;18.93;;;8.83;;
11481;SDS011;5797;51.662;6.748;2022-11-15T06:03:39;13.30;;;8.30;;
11481;SDS011;5797;51.662;6.748;2022-11-15T06:06:45;16.33;;;7.93;;
11481;SDS011;5797;51.662;6.748;2022-11-15T06:09:55;12.97;;;7.57;;
11481;SDS011;5797;51.662;6.748;2022-11-15T06:13:06;10.97;;;6.53;;
11481;SDS011;5797;51.662;6.748;2022-11-15T06:16:12;12.33;;;7.37;;
11481;SDS011;5797;51.662;6.748;2022-11-15T06:19:18;11.03;;;7.07;;
11481;SDS011;5797;51.662;6.748;2022-11-15T06:22:25;15.63;;;6.40;;
11481;SDS011;5797;51.662;6.748;2022-11-15T06:25:31;10.40;;;6.03;;
11481;SDS011;5797;51.662;6.748;2022-11-15T06:28:38;10.63;;;6.40;;
11481;SDS011;5797;51.662;6.748;2022-11-15T06:31:44;7.17;;;5.63;;
11481;SDS011;5797;51.662;6.748;2022-11-15T06:34:49;10.57;;;5.87;;
11481;SDS011;5797;51.662;6.748;2022-11-15T06:37:56;10.60;;;5.37;;
11481;SDS011;5797;51.662;6.748;2022-11-15T06:41:08;8.63;;;5.53;;
11481;SDS011;5797;51.662;6.748;2022-11-15T06:44:16;8.07;;;5.43;;
11481;SDS011;5797;51.662;6.748;2022-11-15T06:47:22;8.87;;;5.00;;
11481;SDS011;5797;51.662;6.748;2022-11-15T06:50:31;8.33;;;5.80;;
11481;SDS011;5797;51.662;6.748;2022-11-15T06:53:38;7.47;;;5.07;;
11481;SDS011;5797;51.662;6.748;2022-11-15T06:56:44;7.77;;;5.63;;
11481;SDS011;5797;51.662;6.748;2022-11-15T06:59:52;8.73;;;5.40;;
11481;SDS011;5797;51.662;6.748;2022-11-15T07:02:59;9.63;;;5.80;;
11481;SDS011;5797;51.662;6.748;2022-11-15T07:06:05;10.37;;;6.00;;
11481;SDS011;5797;51.662;6.748;2022-11-15T07:09:11;10.30;;;5.70;;
11481;SDS011;5797;51.662;6.748;2022-11-15T07:12:19;7.63;;;5.40;;
11481;SDS011;5797;51.662;6.748;2022-11-15T07:15:27;10.90;;;6.00;;
11481;SDS011;5797;51.662;6.748;2022-11-15T07:18:33;8.67;;;6.33;;
11481;SDS011;5797;51.662;6.748;2022-11-15T07:21:39;9.57;;;5.90;;
11481;SDS011;5797;51.662;6.748;2022-11-15T07:24:45;12.60;;;6.03;;
11481;SDS011;5797;51.662;6.748;2022-11-15T07:27:55;9.47;;;5.83;;
11481;SDS011;5797;51.662;6.748;2022-11-15T07:31:03;10.03;;;5.47;;
11481;SDS011;5797;51.662;6.748;2022-11-15T07:34:08;10.77;;;5.77;;
11481;SDS011;5797;51.662;6.748;2022-11-15T07:37:15;9.07;;;5.40;;
11481;SDS011;5797;51.662;6.748;2022-11-15T07:40:21;8.97;;;5.50;;
11481;SDS011;5797;51.662;6.748;2022-11-15T07:43:28;6.83;;;5.17;;
11481;SDS011;5797;51.662;6.748;2022-11-15T07:46:36;7.73;;;5.17;;
11481;SDS011;5797;51.662;6.748;2022-11-15T07:49:42;7.57;;;5.03;;
11481;SDS011;5797;51.662;6.748;2022-11-15T07:52:51;9.90;;;5.40;;
11481;SDS011;5797;51.662;6.748;2022-11-15T07:55:59;9.20;;;4.90;;
11481;SDS011;5797;51.662;6.748;2022-11-15T07:59:04;8.97;;;4.83;;
11481;SDS011;5797;51.662;6.748;2022-11-15T08:02:12;6.90;;;5.10;;
11481;SDS011;5797;51.662;6.748;2022-11-15T08:05:20;9.83;;;5.20;;
11481;SDS011;5797;51.662;6.748;2022-11-15T08:08:27;8.03;;;4.63;;
11481;SDS011;5797;51.662;6.748;2022-11-15T08:11:33;9.57;;;5.00;;
11481;SDS011;5797;51.662;6.748;2022-11-15T08:14:38;6.90;;;4.13;;
11481;SDS011;5797;51.662;6.748;2022-11-15T08:17:46;4.03;;;2.93;;
11481;SDS011;5797;51.662;6.748;2022-11-15T08:20:51;5.70;;;3.53;;
11481;SDS011;5797;51.662;6.748;2022-11-15T08:23:57;6.60;;;3.30;;
11481;SDS011;5797;51.662;6.748;2022-11-15T08:27:03;7.80;;;3.40;;
11481;SDS011;5797;51.662;6.748;2022-11-15T08:30:08;5.30;;;3.00;;
11481;SDS011;5797;51.662;6.748;2022-11-15T08:33:17;4.33;;;2.80;;
11481;SDS011;5797;51.662;6.748;2022-11-15T08:36:22;5.40;;;2.70;;
11481;SDS011;5797;51.662;6.748;2022-11-15T08:39:28;4.87;;;3.03;;
11481;SDS011;5797;51.662;6.748;2022-11-15T08:42:38;6.07;;;3.40;;
11481;SDS011;5797;51.662;6.748;2022-11-15T08:45:48;3.10;;;2.50;;
11481;SDS011;5797;51.662;6.748;2022-11-15T08:48:55;2.57;;;2.23;;
11481;SDS011;5797;51.662;6.748;2022-11-15T08:52:02;3.60;;;2.27;;
11481;SDS011;5797;51.662;6.748;2022-11-15T08:55:09;2.23;;;1.80;;
11481;SDS011;5797;51.662;6.748;2022-11-15T08:58:15;2.53;;;1.57;;
11481;SDS011;5797;51.662;6.748;2022-11-15T09:01:22;2.47;;;1.60;;
11481;SDS011;5797;51.662;6.748;2022-11-15T09:04:29;3.43;;;1.93;;
11481;SDS011;5797;51.662;6.748;2022-11-15T09:07:35;2.20;;;1.67;;
11481;SDS011;5797;51.662;6.748;2022-11-15T09:10:41;3.37;;;1.90;;
11481;SDS011;5797;51.662;6.748;2022-11-15T09:13:47;5.53;;;2.30;;
11481;SDS011;5797;51.662;6.748;2022-11-15T09:16:53;3.83;;;1.90;;
11481;SDS011;5797;51.662;6.748;2022-11-15T09:20:02;2.93;;;1.60;;
11481;SDS011;5797;51.662;6.748;2022-11-15T09:23:08;1.70;;;1.33;;
11481;SDS011;5797;51.662;6.748;2022-11-15T09:26:14;4.20;;;1.90;;
11481;SDS011;5797;51.662;6.748;2022-11-15T09:29:20;3.33;;;2.07;;
11481;SDS011;5797;51.662;6.748;2022-11-15T09:32:27;2.40;;;1.70;;
11481;SDS011;5797;51.662;6.748;2022-11-15T09:35:46;3.73;;;2.00;;
11481;SDS011;5797;51.662;6.748;2022-11-15T09:38:52;3.73;;;1.83;;
11481;SDS011;5797;51.662;6.748;2022-11-15T09:42:02;2.47;;;1.83;;
11481;SDS011;5797;51.662;6.748;2022-11-15T09:45:17;5.37;;;2.03;;
11481;SDS011;5797;51.662;6.748;2022-11-15T09:48:42;2.80;;;2.00;;
11481;SDS011;5797;51.662;6.748;2022-11-15T09:51:52;2.67;;;2.30;;
11481;SDS011;5797;51.662;6.748;2022-11-15T09:54:40;4.30;;;2.57;;
11481;SDS011;5797;51.662;6.748;2022-11-15T09:57:38;5.47;;;2.10;;
11481;SDS011;5797;51.662;6.748;2022-11-15T10:00:28;4.27;;;2.60;;
11481;SDS011;5797;51.662;6.748;2022-11-15T10:03:34;3.43;;;2.80;;
11481;SDS011;5797;51.662;6.748;2022-11-15T10:06:42;7.57;;;3.93;;
11481;SDS011;5797;51.662;6.748;2022-11-15T10:09:34;7.33;;;4.70;;
11481;SDS011;5797;51.662;6.748;2022-11-15T10:12:23;6.20;;;4.07;;
11481;SDS011;5797;51.662;6.748;2022-11-15T10:15:13;6.33;;;4.37;;
11481;SDS011;5797;51.662;6.748;2022-11-15T10:18:09;7.90;;;4.17;;
11481;SDS011;5797;51.662;6.748;2022-11-15T10:21:02;8.70;;;4.47;;
11481;SDS011;5797;51.662;6.748;2022-11-15T10:23:58;9.47;;;4.20;;
11481;SDS011;5797;51.662;6.748;2022-11-15T10:26:47;7.60;;;4.67;;
11481;SDS011;5797;51.662;6.748;2022-11-15T10:29:34;9.10;;;4.80;;
11481;SDS011;5797;51.662;6.748;2022-11-15T10:32:21;7.10;;;4.53;;
11481;SDS011;5797;51.662;6.748;2022-11-15T10:35:18;9.07;;;4.87;;
11481;SDS011;5797;51.662;6.748;2022-11-15T10:38:07;8.07;;;4.70;;
11481;SDS011;5797;51.662;6.748;2022-11-15T10:40:55;7.67;;;5.00;;
11481;SDS011;5797;51.662;6.748;2022-11-15T10:44:03;7.07;;;4.70;;
11481;SDS011;5797;51.662;6.748;2022-11-15T10:47:20;10.50;;;5.03;;
11481;SDS011;5797;51.662;6.748;2022-11-15T10:50:25;7.63;;;4.70;;
11481;SDS011;5797;51.662;6.748;2022-11-15T10:53:15;8.13;;;4.40;;
11481;SDS011;5797;51.662;6.748;2022-11-15T10:56:06;7.87;;;4.47;;
11481;SDS011;5797;51.662;6.748;2022-11-15T10:58:55;5.30;;;3.90;;
11481;SDS011;5797;51.662;6.748;2022-11-15T11:01:47;5.47;;;3.50;;
11481;SDS011;5797;51.662;6.748;2022-11-15T11:04:41;6.57;;;3.30;;
11481;SDS011;5797;51.662;6.748;2022-11-15T11:07:35;4.80;;;3.10;;
11481;SDS011;5797;51.662;6.748;2022-11-15T11:10:23;5.43;;;3.20;;
11481;SDS011;5797;51.662;6.748;2022-11-15T11:13:30;5.00;;;2.93;;
11481;SDS011;5797;51.662;6.748;2022-11-15T11:16:20;6.33;;;2.63;;
11481;SDS011;5797;51.662;6.748;2022-11-15T11:19:20;4.83;;;2.60;;
11481;SDS011;5797;51.662;6.748;2022-11-15T11:22:19;2.60;;;2.40;;
11481;SDS011;5797;51.662;6.748;2022-11-15T11:25:16;4.73;;;2.50;;
11481;SDS011;5797;51.662;6.748;2022-11-15T11:28:12;3.07;;;2.13;;
11481;SDS011;5797;51.662;6.748;2022-11-15T11:31:07;3.57;;;2.30;;
11481;SDS011;5797;51.662;6.748;2022-11-15T11:34:09;3.07;;;2.10;;
11481;SDS011;5797;51.662;6.748;2022-11-15T11:37:03;3.23;;;2.23;;
11481;SDS011;5797;51.662;6.748;2022-11-15T11:39:55;3.77;;;2.30;;
11481;SDS011;5797;51.662;6.748;2022-11-15T11:42:56;3.00;;;1.83;;
11481;SDS011;5797;51.662;6.748;2022-11-15T11:45:54;2.50;;;2.07;;
11481;SDS011;5797;51.662;6.748;2022-11-15T11:48:51;3.37;;;2.23;;
11481;SDS011;5797;51.662;6.748;2022-11-15T11:51:41;3.30;;;2.27;;
11481;SDS011;5797;51.662;6.748;2022-11-15T11:54:34;4.90;;;2.30;;
11481;SDS011;5797;51.662;6.748;2022-11-15T11:57:28;5.17;;;1.97;;
11481;SDS011;5797;51.662;6.748;2022-11-15T12:00:24;4.97;;;2.10;;
11481;SDS011;5797;51.662;6.748;2022-11-15T12:03:23;4.67;;;2.20;;
11481;SDS011;5797;51.662;6.748;2022-11-15T12:06:15;4.57;;;2.33;;
11481;SDS011;5797;51.662;6.748;2022-11-15T12:09:11;5.03;;;2.30;;
11481;SDS011;5797;51.662;6.748;2022-11-15T12:12:03;5.80;;;2.40;;
11481;SDS011;5797;51.662;6.748;2022-11-15T12:14:53;3.87;;;2.23;;
11481;SDS011;5797;51.662;6.748;2022-11-15T12:17:42;3.43;;;1.97;;
11481;SDS011;5797;51.662;6.748;2022-11-15T12:20:30;2.70;;;1.67;;
11481;SDS011;5797;51.662;6.748;2022-11-15T12:23:20;7.10;;;2.20;;
11481;SDS011;5797;51.662;6.748;2022-11-15T12:26:10;2.43;;;1.90;;
11481;SDS011;5797;51.662;6.748;2022-11-15T12:29:01;3.37;;;2.30;;
11481;SDS011;5797;51.662;6.748;2022-11-15T12:31:53;4.60;;;1.83;;
11481;SDS011;5797;51.662;6.748;2022-11-15T12:34:45;2.27;;;1.60;;
11481;SDS011;5797;51.662;6.748;2022-11-15T12:40:36;4.23;;;2.07;;
11481;SDS011;5797;51.662;6.748;2022-11-15T12:49:47;4.73;;;1.60;;
11481;SDS011;5797;51.662;6.748;2022-11-15T12:52:34;4.07;;;1.60;;
11481;SDS011;5797;51.662;6.748;2022-11-15T12:55:31;3.13;;;1.57;;
11481;SDS011;5797;51.662;6.748;2022-11-15T12:58:28;4.03;;;1.60;;
11481;SDS011;5797;51.662;6.748;2022-11-15T13:04:47;4.23;;;1.27;;
11481;SDS011;5797;51.662;6.748;2022-11-15T13:07:54;2.40;;;1.10;;
11481;SDS011;5797;51.662;6.748;2022-11-15T13:10:43;2.77;;;1.67;;
11481;SDS011;5797;51.662;6.748;2022-11-15T13:13:41;1.60;;;1.20;;
11481;SDS011;5797;51.662;6.748;2022-11-15T13:16:30;2.70;;;1.00;;
11481;SDS011;5797;51.662;6.748;2022-11-15T13:19:18;2.73;;;1.10;;
11481;SDS011;5797;51.662;6.748;2022-11-15T13:22:09;5.13;;;1.10;;
11481;SDS011;5797;51.662;6.748;2022-11-15T13:25:27;2.43;;;1.23;;
11481;SDS011;5797;51.662;6.748;2022-11-15T13:28:33;4.30;;;1.30;;
11481;SDS011;5797;51.662;6.748;2022-11-15T13:31:26;2.30;;;1.40;;
11481;SDS011;5797;51.662;6.748;2022-11-15T13:37:37;3.93;;;1.50;;
11481;SDS011;5797;51.662;6.748;2022-11-15T13:40:26;1.60;;;1.13;;
11481;SDS011;5797;51.662;6.748;2022-11-15T13:43:19;4.03;;;1.27;;
11481;SDS011;5797;51.662;6.748;2022-11-15T13:46:15;0.80;;;0.80;;
11481;SDS011;5797;51.662;6.748;2022-11-15T13:49:03;3.43;;;1.10;;
11481;SDS011;5797;51.662;6.748;2022-11-15T13:51:53;3.57;;;1.30;;
11481;SDS011;5797;51.662;6.748;2022-11-15T13:54:41;2.53;;;1.37;;
11481;SDS011;5797;51.662;6.748;2022-11-15T13:57:32;1.47;;;1.20;;
11481;SDS011;5797;51.662;6.748;2022-11-15T14:00:35;4.20;;;1.37;;
11481;SDS011;5797;51.662;6.748;2022-11-15T14:03:24;4.47;;;1.30;;
11481;SDS011;5797;51.662;6.748;2022-11-15T14:06:13;1.20;;;0.87;;
11481;SDS011;5797;51.662;6.748;2022-11-15T14:09:24;1.23;;;1.07;;
11481;SDS011;5797;51.662;6.748;2022-11-15T14:12:21;1.80;;;1.07;;
11481;SDS011;5797;51.662;6.748;2022-11-15T14:15:19;2.63;;;1.10;;
11481;SDS011;5797;51.662;6.748;2022-11-15T14:21:25;1.97;;;0.90;;
11481;SDS011;5797;51.662;6.748;2022-11-15T14:24:13;5.33;;;1.10;;
11481;SDS011;5797;51.662;6.748;2022-11-15T14:30:17;1.30;;;1.20;;
11481;SDS011;5797;51.662;6.748;2022-11-15T14:33:11;1.67;;;1.20;;
11481;SDS011;5797;51.662;6.748;2022-11-15T14:36:04;8.03;;;4.90;;
11481;SDS011;5797;51.662;6.748;2022-11-15T14:38:52;6.53;;;4.70;;
11481;SDS011;5797;51.662;6.748;2022-11-15T14:41:39;4.03;;;3.00;;
11481;SDS011;5797;51.662;6.748;2022-11-15T14:44:27;2.27;;;1.90;;
11481;SDS011;5797;51.662;6.748;2022-11-15T14:47:14;3.70;;;1.30;;
11481;SDS011;5797;51.662;6.748;2022-11-15T14:50:01;1.77;;;1.30;;
11481;SDS011;5797;51.662;6.748;2022-11-15T14:52:48;3.53;;;1.50;;
11481;SDS011;5797;51.662;6.748;2022-11-15T14:55:35;8.70;;;1.53;;
11481;SDS011;5797;51.662;6.748;2022-11-15T14:58:22;9.30;;;1.50;;
11481;SDS011;5797;51.662;6.748;2022-11-15T15:01:12;3.17;;;1.20;;
11481;SDS011;5797;51.662;6.748;2022-11-15T15:04:00;3.00;;;1.23;;
11481;SDS011;5797;51.662;6.748;2022-11-15T15:06:47;3.40;;;1.20;;
11481;SDS011;5797;51.662;6.748;2022-11-15T15:09:34;4.93;;;1.47;;
11481;SDS011;5797;51.662;6.748;2022-11-15T15:12:21;1.10;;;1.00;;
11481;SDS011;5797;51.662;6.748;2022-11-15T15:15:12;2.03;;;1.40;;
11481;SDS011;5797;51.662;6.748;2022-11-15T15:18:01;3.47;;;1.40;;
11481;SDS011;5797;51.662;6.748;2022-11-15T15:20:53;4.00;;;1.17;;
11481;SDS011;5797;51.662;6.748;2022-11-15T15:23:42;3.00;;;1.23;;
11481;SDS011;5797;51.662;6.748;2022-11-15T15:26:29;1.70;;;1.27;;
11481;SDS011;5797;51.662;6.748;2022-11-15T15:29:19;4.63;;;1.73;;
11481;SDS011;5797;51.662;6.748;2022-11-15T15:32:05;11.07;;;5.43;;
11481;SDS011;5797;51.662;6.748;2022-11-15T15:34:54;6.40;;;3.13;;
11481;SDS011;5797;51.662;6.748;2022-11-15T15:37:41;3.47;;;1.60;;
11481;SDS011;5797;51.662;6.748;2022-11-15T15:40:32;3.80;;;1.60;;
11481;SDS011;5797;51.662;6.748;2022-11-15T15:43:19;2.30;;;1.43;;
11481;SDS011;5797;51.662;6.748;2022-11-15T15:46:07;3.20;;;1.47;;
11481;SDS011;5797;51.662;6.748;2022-11-15T15:48:55;2.67;;;1.70;;
11481;SDS011;5797;51.662;6.748;2022-11-15T15:51:47;5.17;;;1.77;;
11481;SDS011;5797;51.662;6.748;2022-11-15T15:54:34;1.50;;;1.30;;
11481;SDS011;5797;51.662;6.748;2022-11-15T15:57:21;2.00;;;1.57;;
11481;SDS011;5797;51.662;6.748;2022-11-15T16:00:08;3.87;;;1.80;;
11481;SDS011;5797;51.662;6.748;2022-11-15T16:02:56;4.47;;;1.57;;
11481;SDS011;5797;51.662;6.748;2022-11-15T16:05:44;3.57;;;2.00;;
11481;SDS011;5797;51.662;6.748;2022-11-15T16:08:33;2.50;;;1.97;;
11481;SDS011;5797;51.662;6.748;2022-11-15T16:11:38;6.60;;;2.43;;
11481;SDS011;5797;51.662;6.748;2022-11-15T16:14:24;3.50;;;2.10;;
11481;SDS011;5797;51.662;6.748;2022-11-15T16:17:11;6.27;;;2.70;;
11481;SDS011;5797;51.662;6.748;2022-11-15T16:20:02;5.13;;;2.10;;
11481;SDS011;5797;51.662;6.748;2022-11-15T16:22:50;2.90;;;1.90;;
11481;SDS011;5797;51.662;6.748;2022-11-15T16:25:39;3.27;;;1.90;;
11481;SDS011;5797;51.662;6.748;2022-11-15T16:28:28;5.27;;;2.20;;
11481;SDS011;5797;51.662;6.748;2022-11-15T16:31:17;4.17;;;2.30;;
11481;SDS011;5797;51.662;6.748;2022-11-15T16:34:05;2.97;;;2.43;;
11481;SDS011;5797;51.662;6.748;2022-11-15T16:36:52;2.97;;;2.07;;
11481;SDS011;5797;51.662;6.748;2022-11-15T16:39:39;5.70;;;2.23;;
11481;SDS011;5797;51.662;6.748;2022-11-15T16:42:27;3.17;;;2.03;;
11481;SDS011;5797;51.662;6.748;2022-11-15T16:45:14;3.77;;;2.30;;
11481;SDS011;5797;51.662;6.748;2022-11-15T16:48:00;3.40;;;2.10;;
11481;SDS011;5797;51.662;6.748;2022-11-15T16:50:47;3.90;;;2.27;;
11481;SDS011;5797;51.662;6.748;2022-11-15T16:53:35;7.03;;;2.73;;
11481;SDS011;5797;51.662;6.748;2022-11-15T16:56:22;6.60;;;2.57;;
11481;SDS011;5797;51.662;6.748;2022-11-15T16:59:13;3.13;;;2.40;;
11481;SDS011;5797;51.662;6.748;2022-11-15T17:02:02;2.93;;;2.20;;
11481;SDS011;5797;51.662;6.748;2022-11-15T17:04:49;5.47;;;2.00;;
11481;SDS011;5797;51.662;6.748;2022-11-15T17:07:35;3.10;;;2.13;;
11481;SDS011;5797;51.662;6.748;2022-11-15T17:10:23;5.43;;;2.40;;
11481;SDS011;5797;51.662;6.748;2022-11-15T17:13:11;5.23;;;2.50;;
11481;SDS011;5797;51.662;6.748;2022-11-15T17:16:04;4.53;;;2.40;;
11481;SDS011;5797;51.662;6.748;2022-11-15T17:18:52;2.60;;;2.03;;
11481;SDS011;5797;51.662;6.748;2022-11-15T17:21:40;4.20;;;2.97;;
11481;SDS011;5797;51.662;6.748;2022-11-15T17:24:27;5.27;;;3.17;;
11481;SDS011;5797;51.662;6.748;2022-11-15T17:27:13;2.87;;;2.50;;
11481;SDS011;5797;51.662;6.748;2022-11-15T17:30:00;4.57;;;2.90;;
11481;SDS011;5797;51.662;6.748;2022-11-15T17:32:49;4.57;;;2.57;;
11481;SDS011;5797;51.662;6.748;2022-11-15T17:35:36;5.90;;;2.80;;
11481;SDS011;5797;51.662;6.748;2022-11-15T17:38:23;4.60;;;2.50;;
11481;SDS011;5797;51.662;6.748;2022-11-15T17:41:11;3.20;;;2.60;;
11481;SDS011;5797;51.662;6.748;2022-11-15T17:43:58;3.23;;;2.20;;
11481;SDS011;5797;51.662;6.748;2022-11-15T17:46:47;3.63;;;2.33;;
11481;SDS011;5797;51.662;6.748;2022-11-15T17:49:35;3.07;;;2.50;;
11481;SDS011;5797;51.662;6.748;2022-11-15T17:52:25;3.37;;;2.37;;
11481;SDS011;5797;51.662;6.748;2022-11-15T17:55:11;3.07;;;2.27;;
11481;SDS011;5797;51.662;6.748;2022-11-15T17:57:58;4.70;;;3.00;;
11481;SDS011;5797;51.662;6.748;2022-11-15T18:00:45;4.33;;;3.43;;
11481;SDS011;5797;51.662;6.748;2022-11-15T18:03:33;6.70;;;2.57;;
11481;SDS011;5797;51.662;6.748;2022-11-15T18:06:22;3.57;;;2.77;;
11481;SDS011;5797;51.662;6.748;2022-11-15T18:09:10;3.23;;;2.30;;
11481;SDS011;5797;51.662;6.748;2022-11-15T18:11:57;5.07;;;2.73;;
11481;SDS011;5797;51.662;6.748;2022-11-15T18:14:43;4.20;;;2.83;;
11481;SDS011;5797;51.662;6.748;2022-11-15T18:17:30;2.30;;;2.10;;
11481;SDS011;5797;51.662;6.748;2022-11-15T18:20:17;3.70;;;2.07;;
11481;SDS011;5797;51.662;6.748;2022-11-15T18:23:05;3.93;;;2.00;;
11481;SDS011;5797;51.662;6.748;2022-11-15T18:25:52;3.93;;;2.33;;
11481;SDS011;5797;51.662;6.748;2022-11-15T18:28:39;3.03;;;1.97;;
11481;SDS011;5797;51.662;6.748;2022-11-15T18:31:28;2.10;;;1.90;;
11481;SDS011;5797;51.662;6.748;2022-11-15T18:34:15;3.30;;;1.80;;
11481;SDS011;5797;51.662;6.748;2022-11-15T18:37:03;4.57;;;2.00;;
11481;SDS011;5797;51.662;6.748;2022-11-15T18:39:51;5.83;;;2.10;;
11481;SDS011;5797;51.662;6.748;2022-11-15T18:42:38;2.30;;;1.90;;